createdAt,value
2023-01-20T00:01:22.105Z,15.03
2023-01-20T00:03:48.911Z,15.30
2023-01-20T00:06:15.429Z,15.07
2023-01-20T00:08:41.975Z,15.27
2023-01-20T00:11:11.549Z,14.63
2023-01-20T00:13:38.784Z,15.37
2023-01-20T00:16:07.580Z,16.20
2023-01-20T00:18:35.058Z,14.50
2023-01-20T00:21:04.278Z,14.10
2023-01-20T00:23:30.902Z,16.07
2023-01-20T00:25:57.450Z,15.20
2023-01-20T00:28:23.874Z,15.90
2023-01-20T00:30:50.408Z,15.30
2023-01-20T00:33:16.883Z,16.23
2023-01-20T00:35:44.391Z,15.13
2023-01-20T00:38:10.785Z,14.80
2023-01-20T00:40:37.183Z,15.03
2023-01-20T00:43:03.608Z,13.83
2023-01-20T00:45:30.044Z,14.03
2023-01-20T00:47:56.472Z,16.07
2023-01-20T00:50:22.904Z,14.53
2023-01-20T00:52:49.335Z,15.00
2023-01-20T00:55:16.046Z,15.07
2023-01-20T00:57:42.616Z,14.90
2023-01-20T01:00:09.634Z,15.40
2023-01-20T01:02:39.974Z,15.53
2023-01-20T01:05:06.665Z,15.03
2023-01-20T01:07:33.110Z,15.67
2023-01-20T01:09:59.546Z,17.03
2023-01-20T01:12:26.016Z,17.67
2023-01-20T01:14:52.472Z,17.40
2023-01-20T01:17:18.969Z,18.50
2023-01-20T01:19:45.408Z,18.70
2023-01-20T01:22:11.852Z,20.13
2023-01-20T01:24:38.280Z,18.37
2023-01-20T01:27:04.848Z,20.60
2023-01-20T01:29:31.292Z,19.67
2023-01-20T01:31:57.779Z,19.20
2023-01-20T01:34:24.309Z,20.17
2023-01-20T01:36:50.777Z,18.20
2023-01-20T01:39:17.192Z,17.53
2023-01-20T01:41:43.622Z,17.53
2023-01-20T01:44:12.862Z,18.63
2023-01-20T01:46:41.157Z,18.60
2023-01-20T01:49:17.735Z,18.87
2023-01-20T01:51:58.238Z,19.33
2023-01-20T01:54:29.555Z,20.37
2023-01-20T01:56:56.157Z,19.97
2023-01-20T01:59:22.799Z,18.83
2023-01-20T02:01:51.605Z,20.00
2023-01-20T02:04:21.845Z,21.20
2023-01-20T02:06:52.356Z,19.70
2023-01-20T02:09:19.809Z,20.20
2023-01-20T02:11:52.091Z,21.30
2023-01-20T02:14:26.744Z,20.63
2023-01-20T02:16:53.089Z,20.80
2023-01-20T02:19:46.936Z,19.30
2023-01-20T02:22:31.072Z,22.10
2023-01-20T02:25:14.425Z,21.60
2023-01-20T02:28:09.645Z,21.57
2023-01-20T02:30:57.922Z,22.00
2023-01-20T02:33:38.407Z,21.90
2023-01-20T02:36:13.199Z,21.60
2023-01-20T02:38:56.278Z,22.13
2023-01-20T02:41:28.619Z,21.60
2023-01-20T02:44:18.014Z,22.40
2023-01-20T02:47:04.184Z,23.37
2023-01-20T02:49:37.985Z,22.87
2023-01-20T02:52:17.237Z,23.10
2023-01-20T02:54:48.872Z,20.70
2023-01-20T02:57:23.854Z,21.43
2023-01-20T02:59:54.244Z,19.53
2023-01-20T03:02:25.610Z,20.80
2023-01-20T03:05:01.314Z,20.37
2023-01-20T03:07:31.301Z,19.70
2023-01-20T03:10:02.733Z,19.00
2023-01-20T03:12:59.298Z,19.27
2023-01-20T03:15:35.468Z,18.17
2023-01-20T03:18:01.996Z,17.53
2023-01-20T03:20:28.475Z,18.80
2023-01-20T03:22:54.931Z,19.10
2023-01-20T03:25:22.447Z,18.80
2023-01-20T03:27:48.905Z,18.47
2023-01-20T03:30:16.519Z,17.63
2023-01-20T03:32:47.215Z,19.07
2023-01-20T03:35:16.503Z,17.33
2023-01-20T03:37:44.543Z,18.20
2023-01-20T03:40:12.884Z,18.10
2023-01-20T03:42:49.017Z,18.00
2023-01-20T03:45:24.737Z,16.27
2023-01-20T03:48:09.404Z,17.60
2023-01-20T03:50:38.678Z,18.60
2023-01-20T03:53:23.990Z,18.63
2023-01-20T03:56:00.444Z,16.80
2023-01-20T03:58:37.215Z,17.80
2023-01-20T04:01:17.769Z,18.63
2023-01-20T04:03:48.517Z,20.30
2023-01-20T04:06:16.843Z,19.30
2023-01-20T04:08:55.755Z,21.30
2023-01-20T04:11:23.248Z,20.20
2023-01-20T04:13:50.886Z,21.17
2023-01-20T04:16:19.151Z,22.27
2023-01-20T04:18:48.687Z,23.40
2023-01-20T04:21:28.326Z,21.30
2023-01-20T04:24:02.847Z,20.97
2023-01-20T04:26:29.343Z,21.17
2023-01-20T04:28:55.763Z,20.80
2023-01-20T04:31:30.500Z,22.10
2023-01-20T04:33:57.703Z,20.80
2023-01-20T04:36:25.201Z,22.73
2023-01-20T04:38:51.769Z,20.93
2023-01-20T04:41:18.256Z,22.00
2023-01-20T04:43:45.303Z,21.20
2023-01-20T04:46:15.830Z,21.37
2023-01-20T04:48:44.552Z,21.47
2023-01-20T04:51:10.990Z,23.10
2023-01-20T04:53:37.413Z,22.27
2023-01-20T04:56:04.017Z,20.70
2023-01-20T04:58:30.448Z,22.07
2023-01-20T05:00:56.884Z,21.40
2023-01-20T05:03:23.431Z,23.67
2023-01-20T05:05:56.085Z,21.03
2023-01-20T05:08:22.562Z,21.60
2023-01-20T05:10:49.037Z,22.70
2023-01-20T05:13:15.492Z,21.50
2023-01-20T05:15:43.813Z,19.77
2023-01-20T05:18:10.423Z,20.07
2023-01-20T05:20:36.880Z,20.60
2023-01-20T05:23:03.681Z,18.00
2023-01-20T05:25:30.239Z,19.00
2023-01-20T05:27:58.108Z,18.87
2023-01-20T05:30:24.558Z,16.90
2023-01-20T05:32:51.939Z,18.17
2023-01-20T05:35:18.563Z,18.47
2023-01-20T05:37:45.024Z,17.93
2023-01-20T05:40:11.922Z,18.50
2023-01-20T05:42:38.731Z,17.67
2023-01-20T05:45:05.925Z,17.27
2023-01-20T05:47:32.406Z,17.07
2023-01-20T05:49:58.822Z,17.90
2023-01-20T05:52:25.283Z,16.30
2023-01-20T05:54:51.781Z,17.23
2023-01-20T05:57:18.372Z,16.17
2023-01-20T05:59:48.444Z,17.30
2023-01-20T06:02:18.613Z,18.00
2023-01-20T06:04:46.330Z,16.10
2023-01-20T06:07:12.854Z,16.40
2023-01-20T06:09:39.387Z,16.10
2023-01-20T06:12:06.367Z,15.97
2023-01-20T06:14:32.843Z,14.60
2023-01-20T06:16:59.297Z,14.57
2023-01-20T06:19:25.764Z,15.50
2023-01-20T06:21:53.473Z,15.40
2023-01-20T06:24:20.048Z,15.10
2023-01-20T06:26:46.491Z,15.03
2023-01-20T06:29:12.972Z,15.37
2023-01-20T06:31:39.770Z,15.93
2023-01-20T06:34:06.263Z,15.50
2023-01-20T06:36:32.711Z,16.10
2023-01-20T06:38:59.148Z,16.00
2023-01-20T06:41:25.957Z,15.53
2023-01-20T06:43:52.462Z,15.63
2023-01-20T06:46:19.068Z,17.60
2023-01-20T06:48:46.441Z,16.93
2023-01-20T06:51:15.562Z,17.43
2023-01-20T06:53:42.553Z,16.73
2023-01-20T06:56:13.975Z,16.43
2023-01-20T06:58:41.242Z,17.20
2023-01-20T07:01:11.542Z,17.17
2023-01-20T07:03:38.223Z,18.27
2023-01-20T07:06:14.058Z,16.30
2023-01-20T07:08:40.507Z,17.40
2023-01-20T07:11:06.926Z,16.00
2023-01-20T07:13:33.334Z,18.07
2023-01-20T07:15:59.784Z,17.33
2023-01-20T07:18:26.217Z,18.17
2023-01-20T07:20:56.749Z,17.30
2023-01-20T07:23:23.950Z,19.80
2023-01-20T07:26:16.463Z,17.60
2023-01-20T07:28:43.096Z,18.50
2023-01-20T07:31:12.661Z,18.80
2023-01-20T07:33:39.418Z,17.63
2023-01-20T07:36:07.752Z,17.03
2023-01-20T07:38:35.016Z,18.10
2023-01-20T07:41:05.498Z,19.90
2023-01-20T07:43:32.309Z,19.57
2023-01-20T07:46:01.437Z,17.60
2023-01-20T07:48:30.403Z,18.40
2023-01-20T07:51:02.586Z,18.83
2023-01-20T07:53:30.086Z,18.47
2023-01-20T07:55:56.568Z,18.67
2023-01-20T07:58:23.032Z,18.23
2023-01-20T08:00:49.460Z,18.00
2023-01-20T08:03:16.322Z,19.47
2023-01-20T08:05:42.914Z,17.63
2023-01-20T08:08:09.356Z,17.67
2023-01-20T08:10:35.849Z,18.87
2023-01-20T08:13:02.310Z,18.50
2023-01-20T08:15:28.801Z,18.23
2023-01-20T08:17:56.274Z,18.17
2023-01-20T08:20:23.046Z,18.00
2023-01-20T08:22:49.533Z,17.70
2023-01-20T08:25:16.460Z,19.80
2023-01-20T08:27:43.229Z,19.87
2023-01-20T08:30:10.315Z,20.07
2023-01-20T08:32:36.746Z,18.60
2023-01-20T08:35:03.351Z,19.17
2023-01-20T08:37:29.785Z,19.67
2023-01-20T08:39:56.300Z,19.20
2023-01-20T08:42:22.895Z,18.33
2023-01-20T08:44:52.664Z,19.37
2023-01-20T08:47:19.112Z,19.50
2023-01-20T08:49:45.665Z,17.80
2023-01-20T08:52:12.354Z,17.70
2023-01-20T08:54:38.887Z,18.40
2023-01-20T08:57:05.343Z,18.70
2023-01-20T08:59:31.745Z,17.50
2023-01-20T09:01:58.173Z,17.43
2023-01-20T09:04:24.657Z,17.90
2023-01-20T09:06:52.661Z,17.63
2023-01-20T09:09:21.085Z,17.77
2023-01-20T09:11:51.322Z,17.30
2023-01-20T09:14:22.629Z,18.07
2023-01-20T09:16:49.299Z,17.50
2023-01-20T09:19:16.522Z,16.43
2023-01-20T09:21:44.041Z,16.93
2023-01-20T09:24:10.537Z,16.47
2023-01-20T09:26:41.629Z,17.80
2023-01-20T09:29:11.964Z,18.00
2023-01-20T09:31:44.495Z,18.47
2023-01-20T09:34:22.453Z,17.83
2023-01-20T09:36:53.896Z,16.30
2023-01-20T09:39:39.596Z,17.27
2023-01-20T09:42:42.390Z,16.03
2023-01-20T09:45:26.108Z,16.93
2023-01-20T09:48:03.557Z,16.37
2023-01-20T09:51:11.957Z,17.40
2023-01-20T09:53:38.335Z,17.10
2023-01-20T09:56:11.744Z,17.47
2023-01-20T09:58:46.548Z,18.43
2023-01-20T10:01:30.575Z,19.40
2023-01-20T10:04:12.437Z,17.40
2023-01-20T10:06:44.347Z,15.93
2023-01-20T10:09:49.744Z,15.70
2023-01-20T10:12:30.727Z,13.53
2023-01-20T10:15:13.120Z,14.67
2023-01-20T10:17:46.009Z,12.60
2023-01-20T10:20:28.087Z,12.97
2023-01-20T10:23:17.790Z,12.60
2023-01-20T10:25:50.949Z,10.23
2023-01-20T10:28:28.081Z,11.43
2023-01-20T10:30:58.191Z,10.33
2023-01-20T10:33:41.905Z,10.23
2023-01-20T10:36:14.664Z,10.67
2023-01-20T10:39:04.808Z,9.80
2023-01-20T10:41:31.252Z,10.87
2023-01-20T10:43:59.600Z,9.97
2023-01-20T10:46:51.583Z,10.73
2023-01-20T10:49:40.036Z,10.47
2023-01-20T10:52:25.255Z,9.70
2023-01-20T10:55:24.005Z,11.00
2023-01-20T10:57:56.434Z,10.20
2023-01-20T11:00:26.884Z,10.17
2023-01-20T11:02:54.105Z,10.03
2023-01-20T11:05:24.247Z,9.63
2023-01-20T11:07:53.825Z,10.90
2023-01-20T11:10:32.511Z,10.20
2023-01-20T11:13:02.260Z,9.60
2023-01-20T11:15:43.219Z,10.90
2023-01-20T11:18:15.964Z,10.43
2023-01-20T11:20:46.454Z,10.13
2023-01-20T11:23:27.136Z,10.23
2023-01-20T11:25:56.610Z,10.63
2023-01-20T11:28:24.496Z,9.73
2023-01-20T11:30:56.247Z,8.50
2023-01-20T11:33:26.349Z,10.10
2023-01-20T11:36:05.012Z,9.60
2023-01-20T11:38:41.914Z,9.43
2023-01-20T11:41:22.004Z,9.50
2023-01-20T11:43:49.970Z,10.40
2023-01-20T11:46:42.865Z,8.90
2023-01-20T11:49:22.381Z,8.63
2023-01-20T11:51:57.288Z,10.10
2023-01-20T11:54:25.067Z,10.67
2023-01-20T11:56:59.732Z,9.70
2023-01-20T11:59:28.490Z,10.00
2023-01-20T12:02:01.506Z,8.80
2023-01-20T12:04:36.961Z,8.90
2023-01-20T12:07:09.321Z,8.67
2023-01-20T12:09:44.297Z,9.40
2023-01-20T12:12:41.609Z,8.50
2023-01-20T12:15:17.288Z,8.30
2023-01-20T12:17:56.162Z,8.63
2023-01-20T12:20:54.477Z,8.97
2023-01-20T12:23:45.894Z,9.13
2023-01-20T12:26:21.740Z,10.13
2023-01-20T12:28:54.341Z,8.63
2023-01-20T12:31:24.014Z,7.90
2023-01-20T12:33:54.639Z,8.67
2023-01-20T12:36:45.682Z,10.47
2023-01-20T12:39:15.120Z,8.80
2023-01-20T12:42:05.273Z,9.73
2023-01-20T12:44:43.894Z,9.40
2023-01-20T12:47:17.377Z,8.80
2023-01-20T12:49:51.035Z,9.00
2023-01-20T12:52:33.019Z,9.17
2023-01-20T12:55:09.851Z,9.53
2023-01-20T12:58:05.586Z,8.73
2023-01-20T13:00:48.385Z,10.90
2023-01-20T13:03:44.504Z,11.90
2023-01-20T13:06:43.039Z,11.27
2023-01-20T13:09:21.545Z,11.00
2023-01-20T13:12:17.254Z,11.73
2023-01-20T13:14:58.650Z,11.73
2023-01-20T13:17:40.483Z,10.53
2023-01-20T13:20:26.292Z,9.60
2023-01-20T13:22:53.779Z,10.27
2023-01-20T13:25:21.734Z,9.20
2023-01-20T13:27:51.072Z,9.93
2023-01-20T13:30:42.983Z,9.20
2023-01-20T13:33:20.028Z,8.97
2023-01-20T13:35:49.741Z,9.43
2023-01-20T13:38:22.706Z,9.70
2023-01-20T13:40:52.284Z,9.40
2023-01-20T13:43:27.428Z,10.10
2023-01-20T13:46:02.920Z,9.63
2023-01-20T13:49:03.893Z,9.70
2023-01-20T13:51:50.796Z,10.33
2023-01-20T13:54:23.901Z,10.90
2023-01-20T13:56:50.726Z,9.70
2023-01-20T13:59:17.631Z,9.93
2023-01-20T14:01:44.209Z,10.20
2023-01-20T14:04:19.575Z,9.87
2023-01-20T14:06:51.806Z,9.67
2023-01-20T14:09:23.502Z,10.40
2023-01-20T14:11:54.617Z,10.30
2023-01-20T14:14:24.773Z,9.80
2023-01-20T14:16:51.854Z,9.60
2023-01-20T14:19:25.305Z,9.80
2023-01-20T14:21:54.931Z,10.10
2023-01-20T14:24:31.125Z,9.57
2023-01-20T14:27:16.514Z,10.17
2023-01-20T14:29:43.923Z,9.63
2023-01-20T14:32:34.334Z,10.87
2023-01-20T14:35:02.445Z,9.80
2023-01-20T14:37:35.445Z,10.73
2023-01-20T14:40:23.906Z,9.10
2023-01-20T14:43:01.038Z,9.53
2023-01-20T14:45:32.764Z,9.67
2023-01-20T14:48:01.813Z,9.60
2023-01-20T14:50:28.811Z,10.10
2023-01-20T14:52:56.173Z,9.07
2023-01-20T14:55:36.623Z,9.83
2023-01-20T14:58:15.217Z,10.20
2023-01-20T15:00:44.312Z,9.50
2023-01-20T15:03:14.259Z,9.87
2023-01-20T15:06:00.578Z,10.27
2023-01-20T15:09:04.375Z,10.00
2023-01-20T15:11:32.573Z,9.77
2023-01-20T15:14:02.008Z,11.40
2023-01-20T15:16:41.606Z,11.57
2023-01-20T15:19:14.512Z,10.00
2023-01-20T15:21:49.296Z,9.70
2023-01-20T15:24:24.325Z,11.37
2023-01-20T15:26:53.741Z,10.67
2023-01-20T15:29:28.789Z,11.37
2023-01-20T15:31:58.518Z,12.03
2023-01-20T15:34:26.139Z,11.60
2023-01-20T15:36:54.598Z,11.80
2023-01-20T15:39:23.736Z,11.70
2023-01-20T15:41:56.970Z,10.93
2023-01-20T15:44:25.262Z,11.43
2023-01-20T15:46:53.826Z,10.90
2023-01-20T15:49:21.803Z,11.17
2023-01-20T15:51:51.734Z,10.70
2023-01-20T15:54:18.137Z,11.80
2023-01-20T15:56:44.653Z,9.23
2023-01-20T15:59:16.548Z,9.70
2023-01-20T16:01:46.967Z,9.93
2023-01-20T16:04:13.542Z,9.30
2023-01-20T16:06:40.169Z,9.00
2023-01-20T16:09:38.549Z,9.83
2023-01-20T16:12:05.187Z,10.73
2023-01-20T16:14:31.579Z,9.90
2023-01-20T16:16:58.003Z,10.30
2023-01-20T16:19:24.505Z,10.30
2023-01-20T16:21:50.875Z,11.23
2023-01-20T16:24:17.327Z,9.50
2023-01-20T16:26:46.770Z,10.10
2023-01-20T16:29:13.235Z,10.23
2023-01-20T16:31:39.826Z,10.70
2023-01-20T16:34:08.005Z,10.33
2023-01-20T16:36:34.522Z,10.10
2023-01-20T16:39:00.986Z,11.07
2023-01-20T16:41:30.647Z,10.13
2023-01-20T16:43:58.365Z,11.00
2023-01-20T16:46:27.462Z,10.17
2023-01-20T16:49:01.811Z,10.97
2023-01-20T16:51:29.528Z,10.50
2023-01-20T16:53:56.888Z,11.30
2023-01-20T16:56:27.697Z,10.63
2023-01-20T16:58:58.916Z,10.50
2023-01-20T17:01:26.060Z,10.77
2023-01-20T17:03:57.333Z,11.27
2023-01-20T17:06:26.386Z,10.23
2023-01-20T17:08:54.593Z,11.57
2023-01-20T17:11:27.081Z,10.73
2023-01-20T17:13:53.941Z,10.90
2023-01-20T17:16:21.656Z,10.90
2023-01-20T17:18:52.474Z,11.37
2023-01-20T17:21:20.630Z,10.77
2023-01-20T17:23:55.287Z,12.90
2023-01-20T17:26:22.484Z,11.77
2023-01-20T17:28:49.075Z,11.10
2023-01-20T17:31:15.640Z,11.13
2023-01-20T17:33:46.355Z,10.53
2023-01-20T17:36:13.130Z,11.70
2023-01-20T17:38:42.439Z,10.80
2023-01-20T17:41:08.941Z,11.00
2023-01-20T17:43:48.124Z,10.80
2023-01-20T17:46:20.018Z,11.50
2023-01-20T17:48:47.105Z,10.40
2023-01-20T17:51:22.138Z,11.60
2023-01-20T17:53:49.240Z,11.83
2023-01-20T17:56:17.075Z,11.20
2023-01-20T17:58:44.788Z,11.50
2023-01-20T18:01:15.564Z,11.30
2023-01-20T18:03:43.389Z,12.20
2023-01-20T18:06:14.890Z,11.10
2023-01-20T18:08:42.152Z,12.50
2023-01-20T18:11:11.408Z,12.23
2023-01-20T18:13:38.460Z,13.10
2023-01-20T18:16:07.079Z,13.20
2023-01-20T18:18:33.712Z,11.80
2023-01-20T18:21:16.358Z,13.90
2023-01-20T18:23:43.552Z,13.03
2023-01-20T18:26:11.789Z,14.67
2023-01-20T18:28:38.251Z,17.90
2023-01-20T18:31:13.599Z,17.47
2023-01-20T18:33:47.421Z,13.43
2023-01-20T18:36:23.616Z,11.90
2023-01-20T18:38:58.402Z,13.07
2023-01-20T18:41:26.548Z,13.03
2023-01-20T18:43:53.194Z,13.67
2023-01-20T18:46:20.092Z,13.90
2023-01-20T18:48:48.859Z,12.57
2023-01-20T18:51:17.756Z,14.10
2023-01-20T18:53:45.718Z,15.43
2023-01-20T18:56:15.220Z,13.40
2023-01-20T18:58:49.672Z,13.50
2023-01-20T19:01:19.043Z,16.23
2023-01-20T19:03:46.801Z,16.77
2023-01-20T19:06:34.932Z,15.37
2023-01-20T19:09:01.868Z,14.47
2023-01-20T19:11:34.396Z,14.20
2023-01-20T19:14:00.935Z,14.60
2023-01-20T19:16:33.686Z,14.43
2023-01-20T19:19:02.418Z,15.33
2023-01-20T19:21:33.285Z,14.83
2023-01-20T19:24:05.733Z,15.00
2023-01-20T19:26:35.523Z,15.20
2023-01-20T19:29:11.778Z,16.20
2023-01-20T19:31:40.070Z,13.20
2023-01-20T19:34:07.854Z,14.00
2023-01-20T19:36:35.074Z,14.47
2023-01-20T19:39:01.574Z,14.80
2023-01-20T19:41:34.269Z,14.10
2023-01-20T19:44:03.099Z,14.57
2023-01-20T19:46:31.973Z,16.13
2023-01-20T19:48:59.679Z,14.97
2023-01-20T19:51:26.903Z,14.30
2023-01-20T19:53:57.781Z,14.70
2023-01-20T19:56:25.965Z,14.53
2023-01-20T19:58:54.207Z,13.70
2023-01-20T20:01:25.732Z,13.77
2023-01-20T20:03:54.260Z,13.10
2023-01-20T20:06:32.072Z,11.80
2023-01-20T20:09:19.286Z,13.13
2023-01-20T20:11:47.313Z,13.90
2023-01-20T20:14:16.573Z,14.20
2023-01-20T20:16:43.129Z,13.03
2023-01-20T20:19:12.228Z,13.50
2023-01-20T20:21:38.773Z,13.43
2023-01-20T20:24:05.719Z,13.73
2023-01-20T20:26:35.182Z,15.80
2023-01-20T20:29:03.445Z,14.00
2023-01-20T20:31:30.079Z,15.23
2023-01-20T20:33:58.927Z,15.87
2023-01-20T20:36:28.312Z,14.20
2023-01-20T20:38:55.043Z,14.37
2023-01-20T20:41:22.299Z,13.67
2023-01-20T20:43:48.746Z,12.80
2023-01-20T20:46:16.403Z,12.70
2023-01-20T20:48:43.111Z,12.27
2023-01-20T20:51:14.891Z,13.77
2023-01-20T20:53:42.339Z,12.80
2023-01-20T20:56:11.268Z,14.40
2023-01-20T20:58:51.614Z,12.60
2023-01-20T21:01:25.584Z,12.80
2023-01-20T21:03:52.067Z,12.90
2023-01-20T21:06:18.577Z,11.73
2023-01-20T21:08:45.043Z,12.30
2023-01-20T21:11:13.420Z,12.30
2023-01-20T21:13:41.922Z,11.93
2023-01-20T21:16:11.627Z,12.33
2023-01-20T21:18:39.177Z,12.13
2023-01-20T21:21:08.441Z,13.30
2023-01-20T21:23:35.383Z,13.00
2023-01-20T21:26:09.250Z,12.77
2023-01-20T21:28:36.418Z,12.77
2023-01-20T21:31:07.528Z,12.83
2023-01-20T21:33:33.978Z,13.77
2023-01-20T21:36:03.962Z,13.37
2023-01-20T21:38:31.427Z,12.63
2023-01-20T21:41:03.827Z,12.83
2023-01-20T21:43:49.873Z,13.17
2023-01-20T21:46:16.713Z,16.80
2023-01-20T21:49:01.629Z,20.13
2023-01-20T21:51:47.106Z,13.23
2023-01-20T21:54:13.718Z,13.47
2023-01-20T21:56:40.251Z,13.33
2023-01-20T21:59:07.719Z,13.53
2023-01-20T22:01:34.875Z,13.40
2023-01-20T22:04:01.685Z,13.40
2023-01-20T22:06:28.276Z,12.30
2023-01-20T22:08:54.823Z,12.87
2023-01-20T22:11:21.802Z,12.70
2023-01-20T22:13:48.226Z,13.90
2023-01-20T22:16:14.666Z,13.53
2023-01-20T22:18:45.407Z,13.40
2023-01-20T22:21:12.038Z,13.97
2023-01-20T22:23:38.960Z,14.03
2023-01-20T22:26:05.727Z,12.00
2023-01-20T22:28:39.580Z,13.30
2023-01-20T22:31:08.264Z,13.00
2023-01-20T22:33:34.901Z,12.23
2023-01-20T22:36:02.139Z,13.40
2023-01-20T22:38:29.033Z,14.30
2023-01-20T22:40:55.613Z,13.83
2023-01-20T22:43:22.085Z,13.20
2023-01-20T22:45:48.772Z,13.50
2023-01-20T22:48:15.271Z,14.63
2023-01-20T22:50:41.678Z,14.03
2023-01-20T22:53:08.147Z,14.00
2023-01-20T22:55:34.615Z,13.20
2023-01-20T22:58:01.071Z,12.77
2023-01-20T23:00:27.580Z,13.90
2023-01-20T23:02:53.983Z,13.83
2023-01-20T23:05:20.432Z,13.40
2023-01-20T23:07:46.847Z,14.10
2023-01-20T23:10:33.323Z,14.00
2023-01-20T23:12:59.852Z,12.83
2023-01-20T23:15:26.361Z,13.87
2023-01-20T23:17:52.845Z,13.90
2023-01-20T23:20:19.377Z,13.97
2023-01-20T23:22:45.910Z,13.57
2023-01-20T23:25:12.451Z,13.87
2023-01-20T23:27:38.933Z,14.00
2023-01-20T23:30:06.090Z,13.93
2023-01-20T23:32:32.528Z,15.10
2023-01-20T23:34:58.968Z,16.67
2023-01-20T23:37:25.426Z,15.60
2023-01-20T23:39:52.935Z,13.47
2023-01-20T23:42:19.492Z,13.53
2023-01-20T23:44:45.918Z,14.70
2023-01-20T23:47:12.386Z,13.57
2023-01-20T23:49:38.918Z,14.90
2023-01-20T23:52:06.108Z,14.90
2023-01-20T23:54:32.515Z,15.20
2023-01-20T23:56:58.970Z,14.17
2023-01-20T23:59:25.465Z,14.80
